Belgorod, Russia
Current Conditions -  °F | °C
As of 5:00 PM on Tuesday 27 Jan 2015 (Local Time) from UUOB Reporting Station
Light Snow Light Snow  
Wind Chill: 17°   Ceiling: 600
Heat Index: 25°   Visibility: 1.3mi
Dew Point: 25°   Wind: 7mph
Humidity: 100%   Direction: 150°SSE
Pressure: 30.06"   Gusts: NA
Location:  50.61°N, 36.59°E
Report Text: UUOB 271400Z 15003MPS 2200 -SN BR OVC006 M04/M04 Q1018 11450541NOSIG
Loading
Personal Weather Stations






























Interactive Weather Map New forecast layout! Learn more

10-Day Weather Forecast

Advertisements
Track Severe Weather on mobile